createdAt,value
2023-01-19T00:01:01.437Z,2.50
2023-01-19T00:03:29.621Z,2.50
2023-01-19T00:05:57.490Z,2.52
2023-01-19T00:08:25.342Z,2.53
2023-01-19T00:10:53.220Z,2.53
2023-01-19T00:13:21.265Z,2.53
2023-01-19T00:15:49.048Z,2.54
2023-01-19T00:18:16.906Z,2.55
2023-01-19T00:20:48.491Z,2.55
2023-01-19T00:23:16.646Z,2.55
2023-01-19T00:25:44.701Z,2.56
2023-01-19T00:28:14.628Z,2.57
2023-01-19T00:30:43.505Z,2.57
2023-01-19T00:33:15.437Z,2.57
2023-01-19T00:35:43.748Z,2.57
2023-01-19T00:38:12.629Z,2.57
2023-01-19T00:40:40.392Z,2.58
2023-01-19T00:43:08.293Z,2.58
2023-01-19T00:45:36.253Z,2.59
2023-01-19T00:48:04.205Z,2.59
2023-01-19T00:50:32.880Z,2.60
2023-01-19T00:53:02.101Z,2.61
2023-01-19T00:55:32.427Z,2.60
2023-01-19T00:58:00.590Z,2.59
2023-01-19T07:00:27.948Z,3.19
2023-01-19T07:02:55.915Z,3.20
2023-01-19T07:05:24.585Z,3.21
2023-01-19T07:07:57.641Z,3.19
2023-01-19T07:10:25.469Z,3.19
2023-01-19T07:12:53.459Z,3.19
2023-01-19T07:15:26.958Z,3.17
2023-01-19T07:17:59.271Z,3.15
2023-01-19T07:20:27.164Z,3.16
2023-01-19T07:22:58.611Z,3.14
2023-01-19T07:25:27.196Z,3.14
2023-01-19T07:27:59.714Z,3.15
2023-01-19T07:30:28.186Z,3.14
2023-01-19T07:32:58.354Z,3.15
2023-01-19T07:35:26.676Z,3.16
2023-01-19T07:37:54.994Z,3.16
2023-01-19T07:40:23.999Z,3.17
2023-01-19T07:42:52.325Z,3.17
2023-01-19T07:45:21.155Z,3.17
2023-01-19T07:47:50.160Z,3.18
2023-01-19T07:50:21.464Z,3.18
2023-01-19T07:52:53.644Z,3.19
2023-01-19T07:55:23.522Z,3.19
2023-01-19T07:57:52.066Z,3.20
2023-01-19T08:00:22.126Z,3.21
2023-01-19T08:02:51.287Z,3.22
2023-01-19T08:05:20.965Z,3.24
2023-01-19T08:07:48.875Z,3.26
2023-01-19T08:10:18.500Z,3.27
2023-01-19T08:12:46.500Z,3.26
2023-01-19T08:15:14.889Z,3.26
2023-01-19T08:17:42.963Z,3.27
2023-01-19T08:20:12.165Z,3.28
2023-01-19T08:22:40.006Z,3.27
2023-01-19T08:25:08.966Z,3.26
2023-01-19T08:27:36.961Z,3.26
2023-01-19T08:30:05.666Z,3.24
2023-01-19T08:32:33.506Z,3.23
2023-01-19T08:35:01.254Z,3.22
2023-01-19T08:37:29.016Z,3.22
2023-01-19T08:39:56.781Z,3.21
2023-01-19T08:42:24.581Z,3.22
2023-01-19T08:44:58.072Z,3.22
2023-01-19T08:47:26.274Z,3.23
2023-01-19T08:49:54.045Z,3.24
2023-01-19T08:52:21.946Z,3.24
2023-01-19T08:54:49.718Z,3.25
2023-01-19T08:57:17.778Z,3.26
2023-01-19T08:59:47.543Z,3.27
2023-01-19T09:02:15.537Z,3.31
2023-01-19T09:04:43.447Z,3.35
2023-01-19T09:07:11.717Z,3.40
2023-01-19T09:09:43.519Z,3.44
2023-01-19T09:12:11.420Z,3.48
2023-01-19T09:14:39.298Z,3.52
2023-01-19T09:17:07.159Z,3.55
2023-01-19T09:19:35.220Z,3.57
2023-01-19T09:22:03.195Z,3.59
2023-01-19T09:24:31.013Z,3.61
2023-01-19T09:26:59.232Z,3.63
2023-01-19T09:29:27.143Z,3.64
2023-01-19T09:31:55.103Z,3.66
2023-01-19T09:34:25.593Z,3.68
2023-01-19T09:36:53.510Z,3.69
2023-01-19T09:39:21.433Z,3.71
2023-01-19T09:41:56.056Z,3.71
2023-01-19T09:44:34.598Z,3.72
2023-01-19T09:47:12.772Z,3.72
2023-01-19T09:49:46.052Z,3.71
2023-01-19T09:52:15.795Z,3.70
2023-01-19T09:54:56.252Z,3.68
2023-01-19T09:57:25.619Z,3.69
2023-01-19T09:59:59.663Z,3.68
2023-01-19T10:02:43.098Z,3.68
2023-01-19T10:05:42.482Z,3.70
2023-01-19T10:08:32.076Z,3.70
2023-01-19T10:11:00.044Z,3.70
2023-01-19T10:13:48.988Z,3.70
2023-01-19T10:16:43.445Z,3.71
2023-01-19T10:19:37.057Z,3.71
2023-01-19T10:22:22.395Z,3.73
2023-01-19T10:24:56.123Z,3.76
2023-01-19T10:27:30.484Z,3.77
2023-01-19T10:29:59.229Z,3.77
2023-01-19T10:32:31.602Z,3.78
2023-01-19T10:35:01.141Z,3.79
2023-01-19T10:37:32.756Z,3.80
2023-01-19T10:40:09.846Z,3.79
2023-01-19T10:42:40.676Z,3.79
2023-01-19T10:45:24.801Z,3.80
2023-01-19T10:47:55.548Z,3.80
2023-01-19T10:50:26.588Z,3.80
2023-01-19T10:52:57.709Z,3.81
2023-01-19T10:55:25.515Z,3.83
2023-01-19T10:57:53.963Z,3.86
2023-01-19T11:00:39.353Z,3.88
2023-01-19T11:03:25.272Z,3.90
2023-01-19T11:05:53.323Z,3.94
2023-01-19T11:08:29.997Z,3.96
2023-01-19T11:11:08.911Z,3.98
2023-01-19T11:13:37.089Z,4.00
2023-01-19T11:16:18.592Z,4.00
2023-01-19T11:18:52.164Z,4.01
2023-01-19T11:21:25.991Z,4.01
2023-01-19T11:23:57.980Z,4.01
2023-01-19T11:26:48.175Z,4.02
2023-01-19T11:29:22.888Z,4.05
2023-01-19T11:31:52.036Z,4.08
2023-01-19T11:34:26.050Z,4.11
2023-01-19T11:37:00.368Z,4.13
2023-01-19T11:39:45.351Z,4.16
2023-01-19T11:42:14.946Z,4.20
2023-01-19T11:44:58.080Z,4.23
2023-01-19T11:47:30.781Z,4.28
2023-01-19T11:50:21.350Z,4.33
2023-01-19T11:53:04.870Z,4.37
2023-01-19T11:55:49.836Z,4.39
2023-01-19T11:58:19.478Z,4.41
2023-01-19T12:00:53.181Z,4.43
2023-01-19T12:03:43.274Z,4.44
2023-01-19T12:06:16.674Z,4.44
2023-01-19T12:09:03.461Z,4.45
2023-01-19T12:11:36.016Z,4.43
2023-01-19T12:14:07.061Z,4.40
2023-01-19T12:16:38.645Z,4.37
2023-01-19T12:19:16.317Z,4.33
2023-01-19T12:21:48.572Z,4.30
2023-01-19T12:24:30.620Z,4.26
2023-01-19T12:27:02.450Z,4.20
2023-01-19T12:29:34.087Z,4.15
2023-01-19T12:32:22.043Z,4.13
2023-01-19T12:34:52.128Z,4.11
2023-01-19T12:37:29.232Z,4.10
2023-01-19T12:40:00.064Z,4.08
2023-01-19T12:42:29.567Z,4.05
2023-01-19T12:45:26.101Z,4.03
2023-01-19T12:47:55.302Z,4.01
2023-01-19T12:50:25.967Z,4.00
2023-01-19T12:53:00.117Z,3.99
2023-01-19T12:55:34.233Z,3.99
2023-01-19T12:58:06.836Z,4.00
2023-01-19T13:00:47.294Z,3.99
2023-01-19T13:03:18.256Z,4.00
2023-01-19T13:05:55.296Z,4.00
2023-01-19T13:08:56.119Z,3.99
2023-01-19T13:11:26.683Z,3.98
2023-01-19T13:13:59.012Z,3.98
2023-01-19T13:16:53.132Z,3.98
2023-01-19T13:19:38.153Z,3.98
2023-01-19T13:22:50.490Z,3.97
2023-01-19T13:25:38.186Z,3.96
2023-01-19T13:28:12.238Z,3.93
2023-01-19T13:31:01.369Z,3.89
2023-01-19T13:33:35.626Z,3.87
2023-01-19T13:36:03.588Z,3.86
2023-01-19T13:38:33.079Z,3.86
2023-01-19T13:41:03.136Z,3.83
2023-01-19T13:43:37.195Z,3.82
2023-01-19T13:46:06.202Z,3.82
2023-01-19T13:48:34.513Z,3.81
2023-01-19T13:51:05.896Z,3.81
2023-01-19T13:53:34.604Z,3.81
2023-01-19T13:56:29.443Z,3.77
2023-01-19T13:59:15.203Z,3.76
2023-01-19T14:01:46.913Z,3.77
2023-01-19T14:04:25.387Z,3.78
2023-01-19T14:06:56.088Z,3.78
2023-01-19T14:09:24.093Z,3.77
2023-01-19T14:12:10.694Z,3.75
2023-01-19T14:14:38.957Z,3.72
2023-01-19T14:17:22.873Z,3.69
2023-01-19T14:19:53.379Z,3.64
2023-01-19T14:22:21.611Z,3.62
2023-01-19T14:24:49.465Z,3.60
2023-01-19T14:27:19.716Z,3.58
2023-01-19T14:29:50.791Z,3.55
2023-01-19T14:32:21.110Z,3.53
2023-01-19T14:34:52.192Z,3.51
2023-01-19T14:37:21.805Z,3.49
2023-01-19T14:39:53.576Z,3.48
2023-01-19T14:42:45.791Z,3.46
2023-01-19T14:45:24.019Z,3.44
2023-01-19T14:47:58.417Z,3.41
2023-01-19T14:50:36.801Z,3.37
2023-01-19T14:53:08.482Z,3.35
2023-01-19T14:55:48.635Z,3.32
2023-01-19T14:58:19.952Z,3.29
2023-01-19T15:00:49.826Z,3.27
2023-01-19T15:03:18.425Z,3.27
2023-01-19T15:05:47.884Z,3.27
2023-01-19T15:08:19.870Z,3.25
2023-01-19T15:10:48.025Z,3.25
2023-01-19T15:13:19.287Z,3.25
2023-01-19T15:15:47.688Z,3.26
2023-01-19T15:18:19.920Z,3.25
2023-01-19T15:20:47.999Z,3.24
2023-01-19T15:23:15.926Z,3.23
2023-01-19T15:25:43.811Z,3.24
2023-01-19T15:28:14.338Z,3.24
2023-01-19T15:30:42.793Z,3.25
2023-01-19T15:33:25.640Z,3.26
2023-01-19T15:35:54.335Z,3.26
2023-01-19T15:38:23.780Z,3.26
2023-01-19T15:40:52.841Z,3.28
2023-01-19T15:43:21.608Z,3.28
2023-01-19T15:46:02.846Z,3.28
2023-01-19T15:48:30.971Z,3.28
2023-01-19T15:50:58.956Z,3.28
2023-01-19T15:53:27.483Z,3.28
2023-01-19T15:55:57.005Z,3.28
2023-01-19T15:58:25.486Z,3.28
2023-01-19T16:00:58.190Z,3.28
2023-01-19T16:03:26.477Z,3.28
2023-01-19T16:05:54.432Z,3.28
2023-01-19T16:08:22.281Z,3.27
2023-01-19T16:10:50.373Z,3.28
2023-01-19T16:13:18.122Z,3.28
2023-01-19T16:15:46.076Z,3.28
2023-01-19T16:18:13.962Z,3.27
2023-01-19T16:20:41.808Z,3.27
2023-01-19T16:23:14.754Z,3.27
2023-01-19T16:25:43.431Z,3.26
2023-01-19T16:28:11.459Z,3.25
2023-01-19T16:30:39.303Z,3.24
2023-01-19T16:33:08.541Z,3.23
2023-01-19T16:35:36.308Z,3.22
2023-01-19T16:38:04.246Z,3.20
2023-01-19T16:40:32.110Z,3.20
2023-01-19T16:42:59.866Z,3.20
2023-01-19T16:45:27.643Z,3.19
2023-01-19T16:47:55.742Z,3.18
2023-01-19T16:50:23.492Z,3.17
2023-01-19T16:52:56.167Z,3.16
2023-01-19T16:55:24.011Z,3.17
2023-01-19T16:57:52.617Z,3.17
2023-01-19T17:00:20.955Z,3.17
2023-01-19T17:02:48.788Z,3.17
2023-01-19T17:05:16.805Z,3.17
2023-01-19T17:07:44.889Z,3.17
2023-01-19T17:10:13.190Z,3.16
2023-01-19T17:12:41.326Z,3.15
2023-01-19T17:15:10.003Z,3.14
2023-01-19T17:17:38.123Z,3.15
2023-01-19T17:20:06.892Z,3.14
2023-01-19T17:22:34.843Z,3.13
2023-01-19T17:25:03.115Z,3.12
2023-01-19T17:27:31.373Z,3.11
2023-01-19T17:29:59.253Z,3.10
2023-01-19T17:32:27.110Z,3.09
2023-01-19T17:34:55.077Z,3.08
2023-01-19T17:37:22.945Z,3.08
2023-01-19T17:39:50.739Z,3.08
2023-01-19T17:42:18.677Z,3.07
2023-01-19T17:44:46.544Z,3.05
2023-01-19T17:47:14.355Z,3.03
2023-01-19T17:49:42.121Z,3.02
2023-01-19T17:52:10.807Z,3.00
2023-01-19T17:54:38.718Z,2.97
2023-01-19T17:57:06.594Z,2.97
2023-01-19T17:59:34.420Z,2.96
2023-01-19T18:02:02.499Z,2.97
2023-01-19T18:04:32.152Z,2.98
2023-01-19T18:07:00.168Z,2.99
2023-01-19T18:09:27.967Z,2.99
2023-01-19T18:11:55.966Z,2.99
2023-01-19T18:14:24.104Z,2.98
2023-01-19T18:16:51.826Z,2.97
2023-01-19T18:19:22.306Z,2.97
2023-01-19T18:21:51.183Z,2.96
2023-01-19T18:24:19.059Z,2.94
2023-01-19T18:26:46.920Z,2.93
2023-01-19T18:29:16.935Z,2.93
2023-01-19T18:31:45.178Z,2.94
2023-01-19T18:34:13.386Z,2.94
2023-01-19T18:36:41.241Z,2.95
2023-01-19T18:39:09.639Z,2.96
2023-01-19T18:41:42.333Z,2.96
2023-01-19T18:44:11.091Z,2.97
2023-01-19T18:46:39.094Z,2.97
2023-01-19T18:49:07.542Z,2.98
2023-01-19T18:51:35.509Z,2.98
2023-01-19T18:54:03.467Z,2.96
2023-01-19T18:56:31.347Z,2.94
2023-01-19T18:58:59.608Z,2.93
2023-01-19T19:01:33.327Z,2.92
2023-01-19T19:04:01.621Z,2.90
2023-01-19T19:06:29.761Z,2.89
2023-01-19T19:08:59.530Z,2.87
2023-01-19T19:11:28.379Z,2.86
2023-01-19T19:13:59.821Z,2.84
2023-01-19T19:16:29.124Z,2.83
2023-01-19T19:18:59.531Z,2.83
2023-01-19T19:21:27.499Z,2.83
2023-01-19T19:23:57.362Z,2.81
2023-01-19T19:26:28.376Z,2.79
2023-01-19T19:28:56.931Z,2.79
2023-01-19T19:31:26.458Z,2.79
2023-01-19T19:33:58.506Z,2.79
2023-01-19T19:36:28.367Z,2.79
2023-01-19T19:38:56.284Z,2.81
2023-01-19T19:41:27.257Z,2.80
2023-01-19T19:43:56.035Z,2.80
2023-01-19T19:46:25.711Z,2.81
2023-01-19T19:48:54.471Z,2.80
2023-01-19T19:51:28.358Z,2.79
2023-01-19T19:53:59.408Z,2.77
2023-01-19T19:56:29.988Z,2.76
2023-01-19T19:58:59.530Z,2.76
2023-01-19T20:01:32.532Z,2.77
2023-01-19T20:04:09.616Z,2.77
2023-01-19T20:06:41.013Z,2.76
2023-01-19T20:09:12.761Z,2.77
2023-01-19T20:11:41.653Z,2.75
2023-01-19T20:14:11.704Z,2.75
2023-01-19T20:16:39.979Z,2.75
2023-01-19T20:19:08.296Z,2.74
2023-01-19T20:21:38.851Z,2.73
2023-01-19T20:24:10.501Z,2.72
2023-01-19T20:26:40.344Z,2.70
2023-01-19T20:29:10.427Z,2.68
2023-01-19T20:31:42.128Z,2.68
2023-01-19T20:34:11.888Z,2.66
2023-01-19T20:36:41.392Z,2.66
2023-01-19T20:39:11.661Z,2.66
2023-01-19T20:41:45.046Z,2.64
2023-01-19T20:44:16.593Z,2.64
2023-01-19T20:46:44.755Z,2.63
2023-01-19T20:49:13.058Z,2.62
2023-01-19T20:51:45.486Z,2.61
2023-01-19T20:54:15.709Z,2.60
2023-01-19T20:56:43.538Z,2.59
2023-01-19T20:59:12.524Z,2.57
2023-01-19T21:01:41.536Z,2.56
2023-01-19T21:04:10.063Z,2.56
2023-01-19T21:06:38.906Z,2.56
2023-01-19T21:09:08.768Z,2.57
2023-01-19T21:11:38.184Z,2.57
2023-01-19T21:14:07.448Z,2.57
2023-01-19T21:16:36.994Z,2.56
2023-01-19T21:19:05.235Z,2.54
2023-01-19T21:21:33.306Z,2.53
2023-01-19T21:24:05.199Z,2.52
2023-01-19T21:26:34.037Z,2.52
2023-01-19T21:29:02.893Z,2.51
2023-01-19T21:31:32.183Z,2.51
2023-01-19T21:34:00.932Z,2.51
2023-01-19T21:36:29.718Z,2.51
2023-01-19T21:39:01.061Z,2.52
2023-01-19T21:41:30.946Z,2.50
2023-01-19T21:44:01.316Z,2.49
2023-01-19T21:46:30.896Z,2.49
2023-01-19T21:49:04.838Z,2.49
2023-01-19T21:51:35.810Z,2.48
2023-01-19T21:54:05.889Z,2.47
2023-01-19T21:56:34.980Z,2.46
2023-01-19T21:59:03.863Z,2.47
2023-01-19T22:01:33.716Z,2.46
2023-01-19T22:04:02.766Z,2.44
2023-01-19T22:06:31.274Z,2.43
2023-01-19T22:09:01.217Z,2.44
2023-01-19T22:11:30.433Z,2.44
2023-01-19T22:14:01.534Z,2.44
2023-01-19T22:16:30.717Z,2.45
2023-01-19T22:19:02.726Z,2.45
2023-01-19T22:21:33.497Z,2.43
2023-01-19T22:24:03.810Z,2.41
2023-01-19T22:26:34.632Z,2.39
2023-01-19T22:29:05.482Z,2.36
2023-01-19T22:31:34.100Z,2.33
2023-01-19T22:34:02.774Z,2.31
2023-01-19T22:36:34.484Z,2.30
2023-01-19T22:39:06.558Z,2.29
2023-01-19T22:41:43.727Z,2.30
2023-01-19T22:44:15.328Z,2.29
2023-01-19T22:46:44.098Z,2.29
2023-01-19T22:49:15.511Z,2.29
2023-01-19T22:51:44.865Z,2.28
2023-01-19T22:54:14.113Z,2.27
2023-01-19T22:56:45.987Z,2.27
2023-01-19T22:59:14.674Z,2.26
2023-01-19T23:01:44.237Z,2.26
2023-01-19T23:04:15.906Z,2.25
2023-01-19T23:06:47.101Z,2.23
2023-01-19T23:09:15.233Z,2.23
2023-01-19T23:11:48.217Z,2.21
2023-01-19T23:14:18.952Z,2.19
2023-01-19T23:16:47.404Z,2.18
2023-01-19T23:19:17.273Z,2.17
2023-01-19T23:21:45.942Z,2.16
2023-01-19T23:24:13.788Z,2.14
2023-01-19T23:26:41.798Z,2.13
2023-01-19T23:29:14.945Z,2.12
2023-01-19T23:31:45.929Z,2.11
2023-01-19T23:34:14.743Z,2.11
2023-01-19T23:36:43.785Z,2.09
2023-01-19T23:39:18.173Z,2.09
2023-01-19T23:41:46.345Z,2.08
2023-01-19T23:44:14.802Z,2.07
2023-01-19T23:46:44.073Z,2.07
2023-01-19T23:49:13.251Z,2.06
2023-01-19T23:51:42.027Z,2.06
2023-01-19T23:54:10.121Z,2.04
2023-01-19T23:56:39.039Z,2.02
2023-01-19T23:59:09.924Z,2.00
